createdAt,value
2018-07-04T00:00:37.902Z,18.30
2018-07-04T00:03:17.843Z,18.30
2018-07-04T00:05:57.748Z,18.30
2018-07-04T00:08:37.850Z,18.30
2018-07-04T00:11:17.995Z,18.30
2018-07-04T00:13:57.766Z,18.20
2018-07-04T00:16:37.599Z,18.20
2018-07-04T00:21:51.290Z,18.10
2018-07-04T00:24:30.896Z,18.10
2018-07-04T00:27:10.646Z,18.10
2018-07-04T00:29:50.476Z,18.10
2018-07-04T00:32:30.238Z,18.10
2018-07-04T00:35:10.199Z,18.10
2018-07-04T00:37:50.048Z,18.00
2018-07-04T00:40:29.678Z,18.00
2018-07-04T00:43:09.514Z,18.00
2018-07-04T00:45:49.190Z,18.00
2018-07-04T00:48:28.839Z,18.00
2018-07-04T00:51:08.641Z,17.90
2018-07-04T00:53:48.585Z,17.90
2018-07-04T00:56:28.412Z,17.90
2018-07-04T00:59:08.291Z,17.90
2018-07-04T01:01:48.057Z,17.90
2018-07-04T01:04:27.769Z,17.90
2018-07-04T01:07:07.497Z,17.90
2018-07-04T01:09:47.405Z,17.80
2018-07-04T01:12:27.189Z,17.80
2018-07-04T01:15:06.929Z,17.80
2018-07-04T01:17:46.783Z,17.70
2018-07-04T01:20:30.997Z,17.70
2018-07-04T01:23:10.748Z,17.70
2018-07-04T01:25:50.660Z,17.60
2018-07-04T01:28:35.853Z,17.60
2018-07-04T01:31:15.674Z,17.60
2018-07-04T01:33:55.358Z,17.60
2018-07-04T01:36:34.958Z,17.50
2018-07-04T01:39:14.637Z,17.50
2018-07-04T01:41:54.382Z,17.50
2018-07-04T01:44:34.095Z,17.40
2018-07-04T01:47:13.825Z,17.40
2018-07-04T01:49:53.557Z,17.40
2018-07-04T01:52:33.347Z,17.40
2018-07-04T01:55:13.098Z,17.30
2018-07-04T01:57:52.963Z,17.20
2018-07-04T02:00:32.735Z,17.10
2018-07-04T02:03:12.579Z,17.10
2018-07-04T02:05:52.419Z,17.00
2018-07-04T02:08:32.116Z,17.00
2018-07-04T02:11:11.853Z,17.00
2018-07-04T02:13:51.867Z,17.00
2018-07-04T02:16:31.519Z,17.00
2018-07-04T02:19:11.261Z,17.00
2018-07-04T02:21:51.149Z,16.90
2018-07-04T02:24:30.954Z,16.90
2018-07-04T02:29:44.396Z,16.90
2018-07-04T02:32:24.135Z,16.80
2018-07-04T02:35:03.890Z,16.80
2018-07-04T02:37:43.732Z,16.80
2018-07-04T02:45:31.346Z,16.70
2018-07-04T02:48:11.117Z,16.70
2018-07-04T02:53:24.614Z,16.80
2018-07-04T02:56:04.346Z,16.80
2018-07-04T02:58:44.062Z,16.80
2018-07-04T03:03:57.566Z,16.70
2018-07-04T03:06:37.265Z,16.70
2018-07-04T03:09:17.054Z,16.70
2018-07-04T03:11:56.761Z,16.70
2018-07-04T03:14:36.468Z,16.80
2018-07-04T03:19:50.062Z,16.80
2018-07-04T03:22:29.879Z,16.70
2018-07-04T03:27:43.318Z,16.80
2018-07-04T03:32:56.929Z,16.80
2018-07-04T03:35:36.718Z,16.80
2018-07-04T03:38:16.417Z,16.80
2018-07-04T03:40:56.280Z,16.70
2018-07-04T03:43:35.964Z,16.70
2018-07-04T03:46:15.562Z,16.70
2018-07-04T03:48:55.365Z,16.70
2018-07-04T03:51:34.973Z,16.80
2018-07-04T03:54:14.835Z,16.80
2018-07-04T03:56:54.699Z,16.90
2018-07-04T03:59:34.831Z,17.00
2018-07-04T04:02:14.689Z,17.00
2018-07-04T04:04:54.397Z,17.10
2018-07-04T04:07:34.259Z,17.10
2018-07-04T04:10:14.091Z,17.10
2018-07-04T04:12:54.049Z,17.10
2018-07-04T04:15:33.931Z,17.10
2018-07-04T04:18:13.682Z,17.10
2018-07-04T04:20:53.572Z,17.20
2018-07-04T04:23:33.214Z,17.20
2018-07-04T04:26:12.882Z,17.20
2018-07-04T04:28:52.733Z,17.20
2018-07-04T04:31:34.884Z,17.20
2018-07-04T04:34:14.995Z,17.20
2018-07-04T04:36:54.871Z,17.30
2018-07-04T04:39:34.557Z,17.30
2018-07-04T04:42:14.323Z,17.30
2018-07-04T04:44:54.183Z,17.30
2018-07-04T04:47:33.866Z,17.30
2018-07-04T04:50:13.566Z,17.30
2018-07-04T04:52:53.358Z,17.40
2018-07-04T04:55:33.208Z,17.50
2018-07-04T04:58:12.938Z,17.50
2018-07-04T05:00:52.493Z,17.60
2018-07-04T05:08:39.860Z,17.60
2018-07-04T05:11:19.598Z,17.70
2018-07-04T05:13:59.359Z,17.70
2018-07-04T05:16:39.132Z,17.70
2018-07-04T05:19:18.862Z,17.80
2018-07-04T05:21:58.700Z,17.80
2018-07-04T05:24:38.434Z,17.90
2018-07-04T05:27:18.479Z,18.00
2018-07-04T05:29:58.429Z,18.00
2018-07-04T05:32:38.219Z,18.10
2018-07-04T05:35:17.931Z,18.10
2018-07-04T05:37:57.680Z,18.20
2018-07-04T05:40:37.357Z,18.20
2018-07-04T05:45:52.605Z,18.30
2018-07-04T05:48:32.447Z,18.40
2018-07-04T05:51:12.247Z,18.50
2018-07-04T05:56:26.834Z,18.60
2018-07-04T05:59:06.463Z,18.70
2018-07-04T06:04:20.091Z,18.80
2018-07-04T06:06:59.836Z,18.90
2018-07-04T06:12:13.179Z,19.10
2018-07-04T06:14:52.988Z,19.20
2018-07-04T06:17:32.809Z,19.30
2018-07-04T06:20:12.748Z,19.40
2018-07-04T06:22:52.638Z,19.50
2018-07-04T06:25:32.391Z,19.60
2018-07-04T06:28:12.036Z,19.70
2018-07-04T06:30:52.111Z,19.80
2018-07-04T06:36:05.946Z,20.10
2018-07-04T06:38:33.350Z,20.10
2018-07-04T06:41:00.683Z,20.20
2018-07-04T06:43:28.061Z,20.30
2018-07-04T06:45:55.534Z,20.40
2018-07-04T06:48:22.855Z,20.50
2018-07-04T06:50:50.458Z,20.60
2018-07-04T06:53:17.788Z,20.60
2018-07-04T06:55:45.141Z,20.70
2018-07-04T06:58:12.481Z,20.70
2018-07-04T07:00:39.840Z,20.70
2018-07-04T07:03:19.555Z,20.80
2018-07-04T07:05:59.154Z,20.90
2018-07-04T07:08:39.019Z,21.00
2018-07-04T07:11:18.710Z,21.00
2018-07-04T07:13:58.639Z,21.00
2018-07-04T07:16:38.359Z,21.10
2018-07-04T07:19:18.197Z,21.20
2018-07-04T07:21:58.073Z,21.30
2018-07-04T07:24:37.753Z,21.40
2018-07-04T07:27:17.517Z,21.50
2018-07-04T07:29:57.338Z,21.70
2018-07-04T07:35:11.568Z,22.00
2018-07-04T07:37:51.159Z,22.20
2018-07-04T07:40:30.924Z,22.30
2018-07-04T07:43:10.763Z,22.50
2018-07-04T07:45:50.401Z,22.70
2018-07-04T07:48:30.429Z,22.70
2018-07-04T07:51:11.194Z,22.70
2018-07-04T07:53:50.960Z,22.80
2018-07-04T07:56:30.752Z,22.90
2018-07-04T07:59:10.663Z,23.10
2018-07-04T08:01:50.446Z,23.20
2018-07-04T08:04:30.342Z,23.20
2018-07-04T08:07:10.237Z,23.20
2018-07-04T08:09:50.082Z,23.20
2018-07-04T08:12:29.971Z,23.40
2018-07-04T08:15:09.824Z,23.50
2018-07-04T08:17:49.652Z,23.50
2018-07-04T08:20:29.403Z,23.60
2018-07-04T08:23:09.363Z,23.70
2018-07-04T08:25:49.147Z,23.80
2018-07-04T08:28:28.723Z,23.80
2018-07-04T08:31:08.494Z,23.90
2018-07-04T08:33:48.327Z,23.90
2018-07-04T08:36:28.135Z,23.90
2018-07-04T08:41:41.712Z,24.20
2018-07-04T08:44:21.499Z,24.20
2018-07-04T08:47:01.267Z,24.40
2018-07-04T08:49:41.087Z,24.50
2018-07-04T08:52:20.743Z,24.50
2018-07-04T08:55:00.552Z,24.50
2018-07-04T08:57:40.241Z,24.50
2018-07-04T09:00:20.113Z,24.40
2018-07-04T09:03:00.071Z,24.40
2018-07-04T09:05:39.894Z,24.30
2018-07-04T09:08:19.423Z,24.40
2018-07-04T09:10:59.264Z,24.60
2018-07-04T09:16:12.827Z,24.90
2018-07-04T09:18:52.669Z,25.00
2018-07-04T09:21:32.430Z,25.00
2018-07-04T09:24:12.161Z,25.00
2018-07-04T09:26:51.977Z,25.10
2018-07-04T09:29:31.637Z,25.30
2018-07-04T09:34:50.009Z,25.30
2018-07-04T09:37:29.778Z,25.50
2018-07-04T09:40:09.479Z,25.60
2018-07-04T09:42:49.183Z,25.70
2018-07-04T09:45:28.812Z,25.80
2018-07-04T09:48:08.600Z,25.90
2018-07-04T09:50:48.409Z,25.80
2018-07-04T09:53:28.385Z,25.90
2018-07-04T09:56:08.286Z,25.80
2018-07-04T09:58:47.975Z,25.70
2018-07-04T10:01:27.957Z,25.80
2018-07-04T10:04:07.586Z,26.00
2018-07-04T10:06:47.202Z,25.90
2018-07-04T10:09:26.981Z,25.80
2018-07-04T10:12:06.713Z,25.70
2018-07-04T10:14:46.629Z,25.60
2018-07-04T10:17:26.305Z,25.60
2018-07-04T10:20:06.016Z,25.80
2018-07-04T10:22:45.929Z,26.00
2018-07-04T10:25:25.701Z,26.30
2018-07-04T10:28:05.405Z,26.20
2018-07-04T10:30:45.216Z,26.20
2018-07-04T10:33:25.138Z,26.40
2018-07-04T10:36:05.014Z,26.60
2018-07-04T10:38:44.845Z,26.70
2018-07-04T10:41:25.358Z,26.60
2018-07-04T10:44:04.916Z,26.60
2018-07-04T10:51:52.221Z,26.70
2018-07-04T10:54:31.943Z,26.70
2018-07-04T10:57:11.813Z,26.80
2018-07-04T10:59:51.631Z,26.90
2018-07-04T11:02:31.578Z,27.10
2018-07-04T11:05:11.468Z,27.10
2018-07-04T11:07:51.311Z,27.20
2018-07-04T11:10:31.213Z,27.10
2018-07-04T11:13:10.861Z,27.10
2018-07-04T11:15:50.630Z,26.90
2018-07-04T11:18:30.345Z,26.80
2018-07-04T11:21:10.024Z,26.90
2018-07-04T11:23:49.826Z,26.90
2018-07-04T11:26:29.567Z,26.90
2018-07-04T11:29:09.462Z,27.00
2018-07-04T11:31:49.272Z,27.10
2018-07-04T11:34:29.303Z,27.20
2018-07-04T11:37:09.150Z,27.30
2018-07-04T11:39:48.973Z,27.40
2018-07-04T11:42:28.837Z,27.30
2018-07-04T11:45:08.823Z,27.40
2018-07-04T11:47:36.156Z,27.40
2018-07-04T11:50:03.606Z,27.40
2018-07-04T11:52:30.972Z,27.40
2018-07-04T11:54:58.448Z,27.10
2018-07-04T11:57:25.799Z,26.80
2018-07-04T11:59:53.164Z,26.70
2018-07-04T12:02:20.597Z,26.70
2018-07-04T12:07:21.632Z,26.50
2018-07-04T12:09:48.983Z,26.50
2018-07-04T12:12:16.394Z,26.50
2018-07-04T12:14:43.755Z,26.50
2018-07-04T12:17:11.218Z,26.40
2018-07-04T12:19:38.678Z,26.40
2018-07-04T12:22:06.017Z,26.40
2018-07-04T12:24:33.401Z,26.20
2018-07-04T12:27:00.843Z,26.10
2018-07-04T12:29:28.116Z,25.90
2018-07-04T12:31:55.518Z,25.80
2018-07-04T12:34:22.872Z,25.50
2018-07-04T12:36:50.260Z,25.10
2018-07-04T12:39:17.644Z,24.70
2018-07-04T12:41:44.993Z,24.50
2018-07-04T12:44:12.345Z,24.40
2018-07-04T12:49:07.510Z,24.50
2018-07-04T12:51:35.696Z,24.60
2018-07-04T12:54:08.427Z,24.70
2018-07-04T12:56:48.162Z,24.90
2018-07-04T12:59:28.042Z,25.10
2018-07-04T13:02:07.657Z,25.20
2018-07-04T13:04:47.457Z,25.40
2018-07-04T13:07:27.287Z,25.60
2018-07-04T13:10:07.027Z,25.70
2018-07-04T13:12:46.751Z,25.70
2018-07-04T13:15:26.349Z,25.70
2018-07-04T13:18:06.041Z,25.70
2018-07-04T13:20:45.795Z,25.50
2018-07-04T13:23:25.657Z,25.40
2018-07-04T13:26:05.497Z,25.30
2018-07-04T13:28:45.655Z,25.10
2018-07-04T13:31:25.847Z,25.10
2018-07-04T13:34:05.539Z,25.00
2018-07-04T13:36:45.370Z,25.00
2018-07-04T13:39:25.024Z,24.90
2018-07-04T13:42:04.816Z,24.80
2018-07-04T13:44:44.739Z,24.40
2018-07-04T13:47:24.584Z,24.10
2018-07-04T13:50:04.807Z,23.90
2018-07-04T13:52:44.312Z,23.70
2018-07-04T13:55:24.132Z,23.50
2018-07-04T13:58:04.454Z,23.30
2018-07-04T14:00:44.259Z,23.30
2018-07-04T14:03:24.093Z,23.20
2018-07-04T14:06:03.773Z,23.10
2018-07-04T14:08:43.500Z,23.10
2018-07-04T14:11:23.306Z,23.00
2018-07-04T14:14:03.212Z,23.00
2018-07-04T14:16:42.936Z,23.00
2018-07-04T14:19:22.804Z,23.10
2018-07-04T14:22:02.499Z,23.10
2018-07-04T14:27:16.079Z,23.50
2018-07-04T14:29:55.887Z,23.70
2018-07-04T14:32:35.686Z,23.90
2018-07-04T14:35:15.406Z,24.20
2018-07-04T14:37:55.257Z,24.40
2018-07-04T14:40:34.991Z,24.50
2018-07-04T14:43:14.731Z,24.50
2018-07-04T14:45:54.650Z,24.60
2018-07-04T14:48:34.431Z,24.50
2018-07-04T14:51:14.173Z,24.50
2018-07-04T14:53:54.000Z,24.30
2018-07-04T14:56:33.751Z,24.10
2018-07-04T14:59:13.510Z,24.00
2018-07-04T15:01:53.240Z,23.90
2018-07-04T15:04:33.110Z,23.70
2018-07-04T15:07:12.915Z,23.30
2018-07-04T15:09:52.903Z,23.10
2018-07-04T15:12:32.747Z,22.50
2018-07-04T15:15:12.491Z,21.20
2018-07-04T15:17:52.237Z,20.50
2018-07-04T15:20:31.995Z,20.20
2018-07-04T15:23:11.884Z,20.20
2018-07-04T15:25:52.045Z,20.40
2018-07-04T15:28:31.853Z,20.60
2018-07-04T15:31:11.743Z,20.80
2018-07-04T15:33:51.462Z,21.10
2018-07-04T15:36:31.290Z,21.20
2018-07-04T15:39:10.970Z,21.30
2018-07-04T15:41:50.708Z,21.50
2018-07-04T15:44:30.594Z,21.70
2018-07-04T15:47:10.262Z,21.80
2018-07-04T15:52:28.031Z,22.00
2018-07-04T15:55:08.081Z,22.10
2018-07-04T15:57:48.053Z,22.20
2018-07-04T16:00:27.864Z,22.20
2018-07-04T16:03:08.177Z,22.40
2018-07-04T16:05:48.076Z,22.50
2018-07-04T16:08:28.048Z,22.60
2018-07-04T16:11:07.944Z,22.70
2018-07-04T16:13:48.771Z,22.80
2018-07-04T16:16:28.635Z,22.90
2018-07-04T16:19:08.831Z,23.10
2018-07-04T16:21:48.708Z,23.20
2018-07-04T16:24:28.418Z,23.20
2018-07-04T16:27:08.186Z,23.20
2018-07-04T16:29:47.944Z,23.30
2018-07-04T16:32:27.747Z,23.30
2018-07-04T16:35:07.877Z,23.30
2018-07-04T16:37:48.202Z,23.30
2018-07-04T16:40:27.915Z,23.20
2018-07-04T16:43:07.783Z,23.10
2018-07-04T16:45:47.995Z,23.10
2018-07-04T16:48:27.843Z,23.10
2018-07-04T16:51:07.509Z,23.00
2018-07-04T16:53:47.429Z,22.90
2018-07-04T16:56:27.133Z,22.90
2018-07-04T16:59:06.813Z,22.80
2018-07-04T17:01:46.653Z,22.80
2018-07-04T17:04:26.397Z,22.70
2018-07-04T17:07:06.420Z,22.70
2018-07-04T17:09:46.732Z,22.70
2018-07-04T17:12:26.566Z,22.70
2018-07-04T17:15:06.503Z,22.70
2018-07-04T17:17:46.106Z,22.70
2018-07-04T17:20:25.902Z,22.70
2018-07-04T17:23:06.334Z,22.80
2018-07-04T17:25:46.230Z,22.80
2018-07-04T17:28:26.506Z,22.80
2018-07-04T17:33:40.286Z,22.80
2018-07-04T17:36:20.036Z,22.80
2018-07-04T17:38:59.991Z,22.70
2018-07-04T17:41:40.025Z,22.70
2018-07-04T17:44:19.873Z,22.60
2018-07-04T17:46:59.793Z,22.60
2018-07-04T17:49:39.640Z,22.60
2018-07-04T17:52:19.515Z,22.60
2018-07-04T17:54:59.455Z,22.60
2018-07-04T17:57:39.401Z,22.60
2018-07-04T18:00:19.153Z,22.60
2018-07-04T18:02:58.883Z,22.50
2018-07-04T18:05:38.798Z,22.50
2018-07-04T18:10:52.657Z,22.50
2018-07-04T18:13:32.637Z,22.40
2018-07-04T18:16:12.376Z,22.40
2018-07-04T18:18:52.529Z,22.40
2018-07-04T18:21:32.578Z,22.30
2018-07-04T18:24:12.343Z,22.30
2018-07-04T18:26:52.295Z,22.20
2018-07-04T18:29:33.136Z,22.10
2018-07-04T18:32:13.084Z,22.10
2018-07-04T18:34:53.120Z,22.00
2018-07-04T18:37:34.106Z,22.00
2018-07-04T18:40:14.875Z,21.90
2018-07-04T18:42:55.025Z,21.90
2018-07-04T18:45:34.966Z,21.80
2018-07-04T18:48:15.054Z,21.80
2018-07-04T18:50:55.307Z,21.70
2018-07-04T18:53:35.297Z,21.70
2018-07-04T18:58:49.393Z,21.50
2018-07-04T19:01:29.854Z,21.50
2018-07-04T19:04:10.173Z,21.40
2018-07-04T19:06:50.284Z,21.30
2018-07-04T19:09:30.223Z,21.20
2018-07-04T19:12:10.389Z,21.20
2018-07-04T19:14:51.210Z,21.10
2018-07-04T19:17:31.502Z,21.00
2018-07-04T19:20:11.715Z,21.00
2018-07-04T19:22:51.680Z,20.90
2018-07-04T19:25:31.784Z,20.90
2018-07-04T19:30:45.893Z,20.70
2018-07-04T19:33:26.054Z,20.70
2018-07-04T19:36:06.192Z,20.60
2018-07-04T19:38:47.040Z,20.50
2018-07-04T19:41:27.239Z,20.40
2018-07-04T19:44:07.901Z,20.40
2018-07-04T19:46:48.125Z,20.20
2018-07-04T19:49:28.137Z,20.20
2018-07-04T19:52:08.150Z,20.10
2018-07-04T19:54:48.218Z,20.10
2018-07-04T19:57:29.271Z,20.10
2018-07-04T20:00:09.603Z,20.00
2018-07-04T20:02:49.537Z,20.00
2018-07-04T20:05:29.616Z,19.90
2018-07-04T20:08:10.160Z,19.70
2018-07-04T20:10:51.316Z,19.70
2018-07-04T20:13:31.275Z,19.60
2018-07-04T20:16:11.348Z,19.60
2018-07-04T20:18:51.481Z,19.60
2018-07-04T20:21:31.561Z,19.40
2018-07-04T20:24:11.470Z,19.30
2018-07-04T20:26:51.725Z,19.20
2018-07-04T20:29:31.821Z,19.20
2018-07-04T20:32:11.817Z,19.10
2018-07-04T20:34:51.766Z,19.00
2018-07-04T20:37:31.645Z,19.00
2018-07-04T20:40:11.764Z,18.90
2018-07-04T20:42:52.356Z,18.80
2018-07-04T20:45:32.289Z,18.80
2018-07-04T20:48:12.507Z,18.80
2018-07-04T20:50:52.585Z,18.80
2018-07-04T20:53:32.726Z,18.80
2018-07-04T20:56:12.571Z,18.80
2018-07-04T20:58:52.719Z,18.80
2018-07-04T21:01:32.669Z,18.70
2018-07-04T21:04:12.611Z,18.60
2018-07-04T21:06:52.486Z,18.60
2018-07-04T21:09:32.301Z,18.70
2018-07-04T21:12:12.012Z,18.70
2018-07-04T21:14:51.918Z,18.50
2018-07-04T21:17:31.736Z,18.50
2018-07-04T21:20:11.784Z,18.40
2018-07-04T21:22:51.887Z,18.30
2018-07-04T21:25:31.932Z,18.20
2018-07-04T21:28:11.935Z,18.10
2018-07-04T21:30:51.895Z,18.00
2018-07-04T21:33:31.826Z,17.90
2018-07-04T21:36:11.575Z,17.80
2018-07-04T21:38:51.713Z,17.80
2018-07-04T21:41:31.473Z,17.80
2018-07-04T21:44:11.308Z,17.80
2018-07-04T21:46:51.300Z,17.70
2018-07-04T21:49:31.404Z,17.80
2018-07-04T21:52:11.064Z,17.80
2018-07-04T21:54:50.870Z,17.80
2018-07-04T21:57:30.536Z,17.80
2018-07-04T22:00:10.236Z,17.80
2018-07-04T22:02:50.124Z,17.70
2018-07-04T22:05:30.267Z,17.60
2018-07-04T22:08:10.417Z,17.60
2018-07-04T22:10:50.386Z,17.60
2018-07-04T22:13:30.048Z,17.50
2018-07-04T22:16:09.756Z,17.60
2018-07-04T22:18:49.797Z,17.60
2018-07-04T22:21:29.766Z,17.60
2018-07-04T22:24:09.608Z,17.50
2018-07-04T22:26:49.433Z,17.50
2018-07-04T22:29:29.420Z,17.40
2018-07-04T22:32:09.205Z,17.40
2018-07-04T22:34:49.056Z,17.40
2018-07-04T22:37:28.812Z,17.30
2018-07-04T22:40:08.521Z,17.20
2018-07-04T22:42:48.604Z,17.20
2018-07-04T22:45:28.348Z,17.30
2018-07-04T22:48:08.316Z,17.20
2018-07-04T22:50:48.042Z,17.10
2018-07-04T22:53:27.984Z,17.10
2018-07-04T22:56:07.727Z,17.10
2018-07-04T22:58:47.570Z,17.20
2018-07-04T23:01:27.162Z,17.10
2018-07-04T23:04:07.873Z,17.20
2018-07-04T23:06:47.822Z,17.20
2018-07-04T23:09:27.566Z,17.20
2018-07-04T23:12:07.308Z,17.20
2018-07-04T23:14:47.248Z,17.10
2018-07-04T23:17:27.146Z,17.10
2018-07-04T23:20:06.951Z,17.10
2018-07-04T23:22:46.749Z,17.00
2018-07-04T23:25:26.483Z,17.00
2018-07-04T23:28:06.373Z,16.80
2018-07-04T23:30:46.124Z,16.70
2018-07-04T23:33:26.029Z,16.70
2018-07-04T23:36:05.951Z,16.70
2018-07-04T23:38:45.655Z,16.70
2018-07-04T23:41:25.600Z,16.70
2018-07-04T23:44:05.339Z,16.70
2018-07-04T23:46:45.493Z,16.80
2018-07-04T23:49:25.283Z,16.70
2018-07-04T23:52:05.281Z,16.70
2018-07-04T23:54:45.328Z,16.70
2018-07-04T23:57:25.389Z,16.70
